Data for 07/20/2009

Time Sea-Level Adjusted Pressure Absolute Pressure Temperature Relative Humidity Dew Point   
(mb) (inHg) (mb) (inHg) (C) (F) (%) (C) (F)
00:05 1021 30.15 850 25.1 18.6 65.4 31 1.2 34.2
00:10 1021 30.15 850 25.1 18 64.5 32 1.3 34.4
00:15 1021 30.15 850 25.1 17.7 63.8 33 1.4 34.6
00:20 1021 30.15 850 25.1 17.6 63.7 33 1.2 34.1
00:25 1021 30.15 850 25.1 17.6 63.7 32 1 33.8
00:30 1021 30.15 850 25.1 17.5 63.6 35 1.8 35.3
00:35 1021 30.15 850 25.1 17.2 62.9 36 1.9 35.4
00:40 1021 30.15 850 25.1 16.9 62.5 35 1.4 34.6
00:45 1021 30.15 850 25.1 16.9 62.5 35 1.4 34.6
00:50 1021 30.15 850 25.1 16.7 62.1 36 1.8 35.2
00:55 1021 30.15 850 25.1 16.9 62.4 35 1.4 34.4
01:00 1021 30.15 850 25.1 17 62.6 32 0.2 32.3
01:05 1021 30.15 850 25.1 17.7 63.9 32 1 33.8
01:10 1021 30.15 850 25.1 17.4 63.2 33 0.9 33.6
01:15 1021 30.15 850 25.1 17 62.7 32 0.5 32.9
01:20 1021 30.15 850 25.1 17.4 63.3 29 -0.5 31.1
01:25 1021 30.15 850 25.1 17.3 63.2 31 -0 32
01:30 1021 30.15 850 25.1 17.4 63.2 29 -0.6 30.9
01:35 1021 30.15 850 25.1 17.7 63.9 29 -0.4 31.3
01:40 1021 30.15 850 25.1 17.8 64 30 -0 32
01:45 1021 30.15 850 25.1 17.1 62.7 35 1.4 34.6
01:50 1021 30.15 850 25.1 15.6 60 39 1.8 35.2
01:55 1021 30.15 850 25.1 14.8 58.7 41 1.6 34.9
02:00 1021 30.15 850 25.1 15 59 36 0.3 32.6
02:05 1021 30.15 850 25.1 15.9 60.6 34 0 32.1
02:10 1021 30.15 850 25.1 16.5 61.7 35 1.1 34.1
02:15 1021 30.15 850 25.1 15.4 59.8 41 2.4 36.4
02:20 1021 30.15 851 25.13 14.6 58.3 40 1.3 34.3
02:25 1021 30.15 851 25.13 14.5 58.2 40 1.1 34
02:30 1021 30.15 851 25.13 14.7 58.5 37 0.2 32.3
02:35 1021 30.15 851 25.13 14.7 58.5 40 1.2 34.2
02:40 1021 30.15 851 25.13 14.3 57.8 42 1.5 34.7
02:45 1021 30.15 851 25.13 14.2 57.6 42 1.5 34.7
02:50 1021 30.15 851 25.13 14 57.2 43 1.8 35.3
02:55 1021 30.15 851 25.13 13.8 56.9 42 1.2 34.2
03:00 1021 30.15 851 25.13 13.8 56.9 44 1.9 35.4
03:05 1022 30.18 851 25.13 13.6 56.4 44 1.6 35
03:10 1022 30.18 851 25.13 13.5 56.3 43 1.3 34.3
03:15 1022 30.18 851 25.13 13.7 56.6 43 1.3 34.3
03:20 1022 30.18 851 25.13 13.8 56.8 42 1 33.8
03:25 1022 30.18 851 25.13 13.8 56.8 43 1.5 34.7
03:30 1022 30.18 851 25.13 13.5 56.3 43 1.3 34.4
03:35 1022 30.18 851 25.13 13.4 56 43 1.2 34.2
03:40 1022 30.18 851 25.13 13.3 55.9 44 1.2 34.2
03:45 1022 30.18 851 25.13 13.1 55.6 44 1.3 34.3
03:50 1022 30.18 851 25.13 13.1 55.6 43 0.8 33.5
03:55 1022 30.18 851 25.13 13.2 55.8 42 0.7 33.2
04:00 1022 30.18 851 25.13 13.3 55.9 42 0.7 33.3
04:05 1022 30.18 851 25.13 13.3 55.9 43 1 33.7
04:10 1022 30.18 851 25.13 13.2 55.8 43 1.1 33.9
04:15 1022 30.18 851 25.13 13.1 55.6 43 0.9 33.6
04:20 1022 30.18 851 25.13 13 55.4 44 1 33.9
04:25 1022 30.18 851 25.13 12.9 55.2 44 0.9 33.6
04:30 1022 30.18 851 25.13 12.9 55.1 45 1.1 34
04:35 1022 30.18 851 25.13 12.6 54.7 45 1 33.8
04:40 1022 30.18 851 25.13 12.3 54.2 47 1.5 34.8
04:45 1022 30.18 851 25.13 11.8 53.2 51 1.9 35.4
04:50 1022 30.18 851 25.13 11.4 52.4 50 1.4 34.6
04:55 1022 30.18 851 25.13 11.5 52.7 50 1.4 34.6
05:00 1022 30.18 851 25.13 11.6 52.8 49 1.4 34.5
05:05 1022 30.18 851 25.13 11.7 53 49 1.3 34.4
05:10 1022 30.18 851 25.13 11.6 52.9 49 1.4 34.6
05:15 1022 30.18 851 25.13 11.6 52.8 49 1.2 34.1
05:20 1022 30.18 851 25.13 11.6 52.8 49 1.4 34.5
05:25 1022 30.18 851 25.13 11.4 52.5 50 1.5 34.6
05:30 1022 30.18 851 25.13 11.4 52.5 50 1.3 34.3
05:35 1022 30.18 851 25.13 11.2 52.1 52 1.8 35.3
05:40 1022 30.18 851 25.13 10.9 51.6 52 1.5 34.7
05:45 1022 30.18 851 25.13 11 51.7 51 1.2 34.1
05:50 1022 30.18 851 25.13 11.2 52.1 51 1.5 34.7
05:55 1022 30.18 851 25.13 11.1 52 51 1.5 34.7
06:00 1022 30.18 852 25.16 11 51.9 51 1.2 34.2
06:05 1022 30.18 852 25.16 11.1 52 50 1.2 34.1
06:10 1022 30.18 852 25.16 11.1 51.9 51 1.3 34.4
06:15 1022 30.18 852 25.16 11 51.7 52 1.5 34.7
06:20 1023 30.21 852 25.16 10.9 51.6 52 1.4 34.6
06:25 1023 30.21 852 25.16 10.9 51.6 53 1.6 35
06:30 1023 30.21 852 25.16 10.8 51.4 53 1.8 35.2
06:35 1023 30.21 852 25.16 10.9 51.5 52 1.3 34.4
06:40 1023 30.21 852 25.16 11.2 52.1 52 1.8 35.2
06:45 1023 30.21 852 25.16 11.4 52.4 51 1.8 35.2
06:50 1023 30.21 852 25.16 11.5 52.7 50 1.6 34.9
06:55 1023 30.21 852 25.16 11.8 53.2 51 2.2 35.9
07:00 1023 30.21 852 25.16 11.5 52.7 52 2 35.6
07:05 1023 30.21 852 25.16 11.7 53 50 1.8 35.2
07:10 1023 30.21 852 25.16 12 53.5 49 1.8 35.2
07:15 1023 30.21 852 25.16 12.1 53.8 51 2.3 36.1
07:20 1023 30.21 852 25.16 12.3 54.1 50 2.1 35.8
07:25 1023 30.21 852 25.16 12.5 54.5 50 2.4 36.3
07:30 1023 30.21 852 25.16 13.1 55.7 47 2.2 35.9
07:35 1023 30.21 852 25.16 13.7 56.6 46 2.4 36.3
07:40 1023 30.21 852 25.16 14.3 57.7 45 2.6 36.6
07:45 1023 30.21 852 25.16 14.9 58.8 42 2.3 36.2
07:50 1023 30.21 852 25.16 15 59 44 2.9 37.2
07:55 1023 30.21 852 25.16 14.7 58.4 44 2.8 37
08:00 1023 30.21 852 25.16 14.8 58.6 45 3 37.5
08:05 1023 30.21 852 25.16 14.6 58.3 45 2.9 37.2
08:10 1023 30.21 852 25.16 14.9 58.7 43 2.6 36.7
08:15 1023 30.21 853 25.19 15.5 60 43 3 37.4
08:20 1023 30.21 853 25.19 16.1 61 42 3.4 38.1
08:25 1023 30.21 852 25.16 16.2 61.1 40 2.5 36.6
08:30 1023 30.21 852 25.16 16.3 61.4 40 2.7 36.9
08:35 1023 30.21 852 25.16 17.1 62.8 36 2 35.6
08:40 1023 30.21 852 25.16 16.9 62.4 42 4.1 39.3
08:45 1023 30.21 853 25.19 17 62.6 40 3.3 37.9
08:50 1023 30.21 853 25.19 17.4 63.4 36 2.5 36.5
08:55 1023 30.21 853 25.19 17.8 64 35 2.1 35.8
09:00 1023 30.21 853 25.19 18.4 65.2 31 1.2 34.2
09:05 1023 30.21 853 25.19 18.5 65.3 31 1.1 33.9
09:10 1023 30.21 853 25.19 19.2 66.6 31 1.8 35.2
09:15 1023 30.21 853 25.19 19 66.1 30 1.1 33.9
09:20 1024 30.24 853 25.19 18.8 65.8 29 0.7 33.2
09:25 1024 30.24 853 25.19 19 66.2 31 1.4 34.6
09:30 1024 30.24 853 25.19 19.1 66.3 31 1.6 34.9
09:35 1024 30.24 853 25.19 19.3 66.8 31 1.8 35.2
09:40 1024 30.24 853 25.19 19.3 66.7 30 1.6 34.9
09:45 1024 30.24 853 25.19 18.9 66 33 2.4 36.2
09:50 1023 30.21 853 25.19 18.9 66 33 2.5 36.5
09:55 1023 30.21 853 25.19 19.3 66.7 32 2.3 36.2
10:00 1023 30.21 853 25.19 19.2 66.6 34 3.1 37.5
10:05 1024 30.24 853 25.19 19 66.2 33 2.5 36.4
10:10 1024 30.24 853 25.19 20.2 68.4 31 2.9 37.2
10:15 1024 30.24 853 25.19 20.5 68.8 31 2.9 37.2
10:20 1024 30.24 853 25.19 20.4 68.6 32 3.1 37.6
10:25 1024 30.24 853 25.19 20.3 68.6 33 3.7 38.6
10:30 1024 30.24 853 25.19 20.2 68.4 31 2.7 36.8
10:35 1024 30.24 853 25.19 20.5 68.9 31 3 37.3
10:40 1024 30.24 853 25.19 20.4 68.6 31 2.8 37.1
10:45 1024 30.24 853 25.19 19.8 67.7 32 2.9 37.1
10:50 1024 30.24 853 25.19 19.7 67.5 35 3.9 39.1
10:55 1024 30.24 853 25.19 20.5 69 33 4 39.3
11:00 1024 30.24 853 25.19 21.5 70.7 30 3.2 37.8
11:05 1024 30.24 853 25.19 20.4 68.7 34 4 39.2
11:10 1024 30.24 853 25.19 20.9 69.7 30 3 37.4
11:15 1024 30.24 853 25.19 21.5 70.7 29 2.9 37.3
11:20 1024 30.24 853 25.19 21.8 71.3 27 2.3 36.2
11:25 1024 30.24 853 25.19 21.9 71.3 26 1.8 35.3
11:30 1024 30.24 853 25.19 21.9 71.4 28 2.8 37
11:35 1024 30.24 853 25.19 21.4 70.5 31 3.6 38.4
11:40 1024 30.24 853 25.19 21.7 71.1 28 2.7 36.8
11:45 1024 30.24 853 25.19 22.4 72.2 29 3.5 38.3
11:50 1024 30.24 853 25.19 22.4 72.2 28 3.4 38.1
11:55 1024 30.24 853 25.19 21.9 71.3 30 3.6 38.4
12:00 1024 30.24 853 25.19 22.3 72.2 27 2.6 36.7
12:05 1024 30.24 853 25.19 22.4 72.3 28 3.1 37.5
12:10 1024 30.24 853 25.19 23 73.4 27 3.3 37.9
12:15 1024 30.24 853 25.19 23 73.4 27 3.1 37.5
12:20 1024 30.24 853 25.19 22.9 73.1 25 2.2 36
12:25 1024 30.24 853 25.19 23.3 74 24 1.6 34.9
12:30 1024 30.24 853 25.19 23.4 74 24 1.6 34.9
12:35 1024 30.24 853 25.19 23.5 74.3 25 2.8 37.1
12:40 1024 30.24 853 25.19 24 75.1 25 3 37.4
12:45 1024 30.24 853 25.19 23.6 74.5 27 3.6 38.5
12:50 1024 30.24 853 25.19 23.5 74.3 24 2 35.7
12:55 1024 30.24 853 25.19 23.8 74.9 25 2.6 36.7
13:00 1024 30.24 853 25.19 23.6 74.4 25 2.4 36.2
13:05 1023 30.21 853 25.19 23.5 74.2 24 2.2 35.9
13:10 1023 30.21 853 25.19 23.1 73.6 27 3.1 37.5
13:15 1023 30.21 853 25.19 23.5 74.3 26 3.3 37.9
13:20 1023 30.21 853 25.19 24 75.2 25 3.3 37.9
13:25 1023 30.21 853 25.19 24.2 75.5 23 2.1 35.8
13:30 1023 30.21 853 25.19 24.6 76.2 22 1.4 34.6
13:35 1023 30.21 853 25.19 24.5 76 23 2 35.6
13:40 1023 30.21 853 25.19 24.7 76.5 23 2.3 36.1
13:45 1023 30.21 853 25.19 24.6 76.3 20 0.5 32.9
13:50 1023 30.21 853 25.19 24.6 76.2 21 1.3 34.4
13:55 1023 30.21 853 25.19 24.6 76.3 22 1.7 35.1
14:00 1023 30.21 853 25.19 24.6 76.3 21 1.4 34.5
14:05 1023 30.21 853 25.19 24.7 76.4 21 1.2 34.2
14:10 1023 30.21 852 25.16 25 76.9 19 -0.3 31.5
14:15 1023 30.21 852 25.16 25 77 22 2.2 36
14:20 1023 30.21 852 25.16 24.2 75.6 23 2.2 36
14:25 1023 30.21 853 25.19 24.5 76 20 0.6 33
14:30 1023 30.21 852 25.16 24.9 76.8 21 1.3 34.3
14:35 1023 30.21 852 25.16 24.8 76.6 19 0.2 32.3
14:40 1023 30.21 852 25.16 24.7 76.4 20 0.6 33.1
14:45 1023 30.21 852 25.16 24.6 76.3 20 0.4 32.7
14:50 1023 30.21 852 25.16 25.2 77.3 18 -0.8 30.6
14:55 1023 30.21 852 25.16 25.5 77.9 19 0.2 32.4
15:00 1023 30.21 852 25.16 25.4 77.7 19 0.3 32.5
15:05 1023 30.21 852 25.16 25.2 77.4 18 -0.9 30.3
15:10 1023 30.21 852 25.16 25.2 77.3 18 -0.7 30.7
15:15 1023 30.21 852 25.16 25.4 77.6 17 -1.1 30
15:20 1023 30.21 852 25.16 25.7 78.2 18 0 32.1
15:25 1023 30.21 852 25.16 25.4 77.7 18 -0.3 31.4
15:30 1023 30.21 852 25.16 25.6 78.1 17 -0.8 30.6
15:35 1023 30.21 852 25.16 25.6 78.1 17 -1.4 29.5
15:40 1023 30.21 852 25.16 26.1 79.1 17 -0.8 30.5
15:45 1023 30.21 852 25.16 26.1 78.9 17 -0.3 31.5
15:50 1023 30.21 852 25.16 25.9 78.6 18 -0.2 31.6
15:55 1023 30.21 852 25.16 25.5 77.9 18 -0 32
16:00 1023 30.21 852 25.16 25.9 78.6 17 -0.5 31.2
16:05 1023 30.21 852 25.16 25.5 77.8 18 -0.2 31.6
16:10 1023 30.21 852 25.16 25.6 78 18 -0.5 31.1
16:15 1023 30.21 852 25.16 26 78.7 19 0.7 33.2
16:20 1023 30.21 852 25.16 26.1 79 19 1.3 34.3
16:25 1023 30.21 852 25.16 26.1 79 18 0.1 32.2
16:30 1023 30.21 852 25.16 26.4 79.5 19 1.2 34.1
16:35 1023 30.21 852 25.16 26.4 79.5 17 -0.4 31.2
16:40 1022 30.18 852 25.16 26.4 79.6 17 -0.5 31.1
16:45 1022 30.18 852 25.16 26.2 79.2 18 0.6 33.1
16:50 1022 30.18 852 25.16 26.1 78.9 19 0.7 33.2
16:55 1022 30.18 852 25.16 26.1 79 19 0.7 33.2
17:00 1022 30.18 852 25.16 26.2 79.1 19 1.2 34.1
17:05 1022 30.18 852 25.16 26.2 79.1 19 1.3 34.4
17:10 1022 30.18 852 25.16 26.7 80.1 19 1.8 35.2
17:15 1022 30.18 852 25.16 26.5 79.6 19 1.6 34.9
17:20 1022 30.18 852 25.16 26.3 79.3 20 1.6 34.9
17:25 1022 30.18 852 25.16 25.2 77.4 21 1.8 35.2
17:30 1022 30.18 852 25.16 24.8 76.6 21 1 33.8
17:35 1022 30.18 852 25.16 25.2 77.4 20 1.2 34.1
17:40 1022 30.18 852 25.16 26 78.7 20 1.9 35.4
17:45 1022 30.18 852 25.16 25.8 78.4 20 1.7 35
17:50 1022 30.18 852 25.16 25.2 77.4 20 1.1 34
17:55 1022 30.18 851 25.13 26.1 79 20 1.6 35
18:00 1022 30.18 851 25.13 26.2 79.1 19 1.2 34.2
18:05 1022 30.18 851 25.13 25.9 78.6 21 2.3 36.2
18:10 1022 30.18 851 25.13 25.8 78.5 21 1.8 35.2
18:15 1022 30.18 851 25.13 26.1 79 20 1.4 34.5
18:20 1022 30.18 851 25.13 25.9 78.6 22 2.5 36.6
18:25 1022 30.18 851 25.13 24.8 76.6 22 2.1 35.7
18:30 1022 30.18 851 25.13 25 77.1 21 1.4 34.6
18:35 1022 30.18 851 25.13 25.4 77.8 21 1.7 35
18:40 1022 30.18 851 25.13 25.7 78.3 20 1.6 34.8
18:45 1022 30.18 851 25.13 25.8 78.5 21 2.3 36.2
18:50 1022 30.18 851 25.13 25.8 78.4 20 1.4 34.6
18:55 1022 30.18 851 25.13 25.6 78.1 21 2 35.5
19:00 1022 30.18 851 25.13 24.8 76.7 23 2.4 36.3
19:05 1022 30.18 851 25.13 24.7 76.5 22 1.8 35.2
19:10 1022 30.18 851 25.13 25 77 21 1.5 34.7
19:15 1022 30.18 851 25.13 25.3 77.5 20 1.1 34
19:20 1022 30.18 851 25.13 24.7 76.5 22 1.9 35.4
19:25 1022 30.18 851 25.13 24.5 76.2 22 1.8 35.2
19:30 1022 30.18 851 25.13 24 75.2 23 1.8 35.2
19:35 1022 30.18 851 25.13 23.8 74.9 24 2.1 35.9
19:40 1022 30.18 851 25.13 23.7 74.6 25 2.4 36.3
19:45 1022 30.18 851 25.13 23.6 74.5 23 1.7 35
19:50 1022 30.18 851 25.13 23.7 74.6 24 2.1 35.8
19:55 1022 30.18 851 25.13 23.6 74.5 24 1.9 35.4
20:00 1022 30.18 851 25.13 23.5 74.3 24 2.1 35.9
20:05 1022 30.18 851 25.13 23.4 74.2 25 2.8 37
20:10 1022 30.18 851 25.13 23.3 74 25 2.2 36
20:15 1022 30.18 851 25.13 23.4 74.1 25 2.5 36.6
20:20 1022 30.18 851 25.13 23.3 73.9 26 2.9 37.2
20:25 1022 30.18 851 25.13 23.2 73.7 26 2.6 36.6
20:30 1022 30.18 851 25.13 23.1 73.5 26 3 37.3
20:35 1022 30.18 851 25.13 22.9 73.2 26 2.8 37.1
20:40 1022 30.18 851 25.13 22.8 73 26 2.5 36.5
20:45 1022 30.18 851 25.13 22.7 72.9 28 3.6 38.5
20:50 1022 30.18 851 25.13 22.5 72.6 31 4.9 40.9
20:55 1022 30.18 851 25.13 22.2 72 34 5.6 42.2
21:00 1022 30.18 851 25.13 21.7 71 38 6.8 44.3
21:05 1022 30.18 851 25.13 21 69.8 41 7.4 45.3
21:10 1022 30.18 851 25.13 20 67.9 47 8.5 47.3
21:15 1022 30.18 851 25.13 19.2 66.6 47 7.8 46
21:20 1022 30.18 851 25.13 19.1 66.4 49 8.1 46.6
21:25 1022 30.18 851 25.13 18.8 65.8 48 7.7 45.9
21:30 1022 30.18 851 25.13 18.4 65.1 44 5.9 42.6
21:35 1022 30.18 851 25.13 18.3 65 44 6.1 42.9
21:40 1022 30.18 851 25.13 18.2 64.7 44 5.7 42.3
21:45 1022 30.18 851 25.13 17.7 63.9 45 5.8 42.5
21:50 1022 30.18 851 25.13 17.2 63 46 5.7 42.3
21:55 1022 30.18 851 25.13 17 62.5 46 5.4 41.8
22:00 1022 30.18 851 25.13 16.9 62.3 47 5.5 41.9
22:05 1022 30.18 852 25.16 16.9 62.4 44 4.8 40.6
22:10 1022 30.18 852 25.16 17.4 63.3 41 4.2 39.6
22:15 1022 30.18 852 25.16 17.9 64.2 39 3.8 38.8
22:20 1022 30.18 852 25.16 18.4 65.2 38 4.1 39.3
22:25 1022 30.18 852 25.16 18.6 65.5 40 4.8 40.7
22:30 1022 30.18 852 25.16 18.7 65.7 41 5.3 41.5
22:35 1022 30.18 852 25.16 18.8 65.8 42 5.7 42.2
22:40 1022 30.18 852 25.16 18.8 65.8 43 6 42.7
22:45 1022 30.18 852 25.16 18.6 65.5 44 6.2 43.1
22:50 1022 30.18 852 25.16 18.5 65.3 44 6.3 43.4
22:55 1022 30.18 852 25.16 18.4 65.1 45 6.5 43.6
23:00 1022 30.18 852 25.16 18.3 64.9 45 6.4 43.6
23:05 1022 30.18 852 25.16 18.3 64.9 46 6.5 43.8
23:10 1023 30.21 852 25.16 18.1 64.6 46 6.4 43.6
23:15 1023 30.21 852 25.16 18.2 64.7 46 6.4 43.4
23:20 1023 30.21 852 25.16 18.1 64.7 46 6.4 43.6
23:25 1023 30.21 852 25.16 18.1 64.6 46 6.4 43.5
23:30 1023 30.21 852 25.16 18.1 64.5 46 6.4 43.5
23:35 1022 30.18 852 25.16 18 64.5 46 6.3 43.4
23:40 1022 30.18 852 25.16 18.1 64.5 46 6.3 43.3
23:45 1023 30.21 852 25.16 17.9 64.3 47 6.4 43.6
23:50 1022 30.18 852 25.16 17.9 64.2 46 6.2 43.2
23:55 1023 30.21 852 25.16 17.9 64.1 47 6.4 43.5
24:00 1023 30.21 852 25.16 17.8 64 47 6.3 43.3